createdAt,value
2018-06-02T00:00:55.977Z,88.30
2018-06-02T00:03:23.568Z,88.80
2018-06-02T00:05:51.194Z,88.60
2018-06-02T00:08:18.720Z,88.50
2018-06-02T00:10:47.010Z,87.80
2018-06-02T00:13:14.608Z,87.80
2018-06-02T00:15:44.399Z,87.80
2018-06-02T00:18:11.963Z,87.80
2018-06-02T00:20:39.479Z,88.00
2018-06-02T00:23:07.017Z,87.70
2018-06-02T00:25:34.570Z,87.70
2018-06-02T00:28:02.108Z,87.80
2018-06-02T00:30:30.291Z,88.70
2018-06-02T00:32:59.335Z,87.50
2018-06-02T00:35:26.896Z,87.50
2018-06-02T00:37:55.330Z,87.60
2018-06-02T00:40:23.647Z,86.90
2018-06-02T00:42:51.411Z,87.00
2018-06-02T00:45:18.935Z,87.20
2018-06-02T00:47:47.299Z,87.20
2018-06-02T00:50:14.823Z,87.10
2018-06-02T00:52:42.343Z,86.90
2018-06-02T00:55:09.866Z,87.20
2018-06-02T00:57:37.652Z,87.20
2018-06-02T01:00:05.174Z,87.50
2018-06-02T01:02:33.524Z,87.70
2018-06-02T01:05:01.077Z,87.70
2018-06-02T01:07:29.273Z,87.40
2018-06-02T01:09:56.869Z,87.60
2018-06-02T01:12:24.404Z,87.40
2018-06-02T01:14:52.731Z,87.70
2018-06-02T01:17:21.958Z,88.00
2018-06-02T01:19:49.658Z,87.90
2018-06-02T01:22:17.192Z,88.10
2018-06-02T01:24:47.592Z,88.10
2018-06-02T01:27:16.782Z,88.20
2018-06-02T01:29:45.067Z,88.70
2018-06-02T01:32:12.591Z,88.70
2018-06-02T01:34:40.115Z,88.10
2018-06-02T01:37:07.649Z,88.50
2018-06-02T01:39:35.940Z,88.60
2018-06-02T01:42:03.790Z,88.60
2018-06-02T01:44:32.131Z,88.60
2018-06-02T01:46:59.652Z,87.90
2018-06-02T01:49:27.216Z,87.90
2018-06-02T01:51:55.689Z,88.20
2018-06-02T01:54:23.214Z,88.50
2018-06-02T01:56:50.743Z,87.80
2018-06-02T01:59:18.276Z,87.70
2018-06-02T02:01:46.595Z,88.20
2018-06-02T02:04:14.236Z,88.20
2018-06-02T02:06:41.773Z,88.00
2018-06-02T02:09:09.290Z,87.40
2018-06-02T02:11:37.554Z,87.70
2018-06-02T02:14:05.808Z,88.10
2018-06-02T02:16:34.157Z,88.20
2018-06-02T02:19:01.691Z,88.20
2018-06-02T02:21:30.024Z,88.10
2018-06-02T02:23:57.579Z,87.90
2018-06-02T02:26:25.104Z,88.00
2018-06-02T02:28:53.483Z,87.80
2018-06-02T02:31:25.728Z,87.80
2018-06-02T02:33:56.710Z,88.40
2018-06-02T02:36:24.239Z,88.40
2018-06-02T02:38:51.758Z,88.50
2018-06-02T02:41:19.923Z,88.60
2018-06-02T02:43:47.451Z,88.50
2018-06-02T02:46:15.748Z,88.40
2018-06-02T02:48:43.272Z,88.40
2018-06-02T02:51:10.824Z,88.10
2018-06-02T02:53:38.348Z,88.10
2018-06-02T02:56:05.866Z,88.20
2018-06-02T02:58:34.158Z,88.30
2018-06-02T03:01:02.456Z,88.50
2018-06-02T03:03:29.988Z,88.50
2018-06-02T03:05:58.280Z,88.30
2018-06-02T03:08:25.809Z,88.20
2018-06-02T03:10:53.480Z,88.00
2018-06-02T03:13:23.607Z,88.10
2018-06-02T03:15:52.825Z,88.30
2018-06-02T03:18:20.404Z,88.20
2018-06-02T03:20:47.987Z,88.50
2018-06-02T03:23:16.419Z,88.30
2018-06-02T03:25:44.757Z,88.00
2018-06-02T03:28:13.435Z,88.00
2018-06-02T03:30:41.012Z,88.10
2018-06-02T03:33:09.005Z,88.00
2018-06-02T03:35:36.536Z,88.00
2018-06-02T03:38:05.020Z,88.00
2018-06-02T03:40:32.542Z,88.00
2018-06-02T03:43:00.724Z,87.80
2018-06-02T03:45:29.291Z,87.70
2018-06-02T03:47:56.815Z,87.60
2018-06-02T03:50:24.347Z,87.90
2018-06-02T03:52:52.705Z,87.90
2018-06-02T03:55:20.277Z,88.40
2018-06-02T03:57:47.842Z,88.00
2018-06-02T04:00:15.415Z,88.10
2018-06-02T04:02:42.995Z,87.70
2018-06-02T04:05:10.523Z,87.70
2018-06-02T04:07:38.046Z,88.20
2018-06-02T04:10:06.551Z,88.20
2018-06-02T04:12:34.078Z,87.70
2018-06-02T04:15:01.667Z,87.70
2018-06-02T04:17:30.011Z,88.00
2018-06-02T04:19:57.535Z,87.80
2018-06-02T04:22:25.362Z,87.60
2018-06-02T04:24:53.756Z,87.60
2018-06-02T04:27:21.292Z,87.90
2018-06-02T04:29:48.910Z,88.10
2018-06-02T04:32:17.018Z,88.10
2018-06-02T04:34:46.046Z,87.90
2018-06-02T04:37:13.592Z,87.90
2018-06-02T04:39:41.120Z,87.60
2018-06-02T04:42:08.673Z,88.30
2018-06-02T04:44:36.195Z,88.40
2018-06-02T04:47:04.088Z,88.00
2018-06-02T04:49:31.611Z,88.10
2018-06-02T04:51:59.139Z,88.20
2018-06-02T04:54:26.671Z,88.40
2018-06-02T04:56:54.234Z,88.40
2018-06-02T04:59:22.459Z,88.60
2018-06-02T05:01:50.030Z,88.40
2018-06-02T05:04:18.403Z,89.00
2018-06-02T05:06:45.979Z,88.20
2018-06-02T05:09:13.532Z,88.40
2018-06-02T05:11:41.901Z,88.20
2018-06-02T05:14:09.455Z,88.40
2018-06-02T05:16:36.980Z,88.70
2018-06-02T05:19:04.499Z,88.30
2018-06-02T05:21:32.023Z,88.80
2018-06-02T05:24:00.382Z,88.70
2018-06-02T05:26:27.946Z,89.00
2018-06-02T05:28:56.624Z,89.10
2018-06-02T05:31:24.208Z,89.20
2018-06-02T05:33:52.537Z,88.90
2018-06-02T05:36:20.099Z,88.80
2018-06-02T05:38:47.640Z,88.90
2018-06-02T05:41:15.164Z,88.70
2018-06-02T05:43:43.456Z,89.10
2018-06-02T05:46:11.347Z,89.00
2018-06-02T05:48:38.870Z,89.20
2018-06-02T05:51:06.440Z,89.10
2018-06-02T05:53:34.953Z,89.10
2018-06-02T05:56:04.036Z,88.90
2018-06-02T05:58:31.563Z,89.20
2018-06-02T06:00:59.139Z,89.00
2018-06-02T06:03:27.095Z,88.70
2018-06-02T06:05:54.620Z,88.80
2018-06-02T06:08:22.178Z,89.10
2018-06-02T06:10:49.734Z,88.90
2018-06-02T06:13:17.290Z,88.90
2018-06-02T06:15:44.814Z,89.10
2018-06-02T06:18:13.149Z,89.20
2018-06-02T06:20:40.698Z,89.30
2018-06-02T06:23:08.830Z,88.90
2018-06-02T06:25:36.343Z,89.30
2018-06-02T06:28:03.872Z,89.60
2018-06-02T06:30:31.391Z,89.70
2018-06-02T06:32:59.389Z,90.00
2018-06-02T06:35:26.882Z,89.50
2018-06-02T06:37:54.840Z,90.00
2018-06-02T06:40:23.335Z,89.80
2018-06-02T06:42:50.858Z,89.80
2018-06-02T06:45:18.521Z,90.00
2018-06-02T06:47:46.188Z,90.30
2018-06-02T06:50:14.155Z,90.10
2018-06-02T06:52:42.373Z,90.10
2018-06-02T06:55:10.872Z,90.00
2018-06-02T06:57:38.991Z,90.10
2018-06-02T07:00:06.580Z,90.00
2018-06-02T07:02:34.113Z,90.00
2018-06-02T07:05:01.644Z,89.80
2018-06-02T07:07:29.164Z,89.50
2018-06-02T07:09:57.620Z,89.50
2018-06-02T07:12:25.148Z,89.10
2018-06-02T07:14:52.671Z,89.30
2018-06-02T07:17:22.411Z,89.20
2018-06-02T07:19:51.384Z,89.30
2018-06-02T07:22:19.284Z,89.50
2018-06-02T07:24:47.613Z,89.80
2018-06-02T07:27:15.144Z,89.70
2018-06-02T07:29:42.675Z,90.00
2018-06-02T07:32:11.081Z,89.70
2018-06-02T07:34:38.611Z,89.70
2018-06-02T07:37:06.127Z,89.70
2018-06-02T07:39:33.647Z,89.30
2018-06-02T07:42:01.166Z,89.30
2018-06-02T07:44:28.687Z,89.30
2018-06-02T07:46:56.215Z,90.00
2018-06-02T07:49:23.766Z,90.20
2018-06-02T07:51:51.331Z,90.10
2018-06-02T07:54:19.123Z,90.40
2018-06-02T07:56:46.651Z,90.00
2018-06-02T07:59:14.196Z,90.00
2018-06-02T08:01:41.724Z,89.80
2018-06-02T08:04:09.254Z,90.20
2018-06-02T08:06:36.790Z,90.00
2018-06-02T08:09:04.319Z,90.10
2018-06-02T08:11:31.843Z,90.00
2018-06-02T08:14:00.372Z,89.70
2018-06-02T08:16:27.894Z,90.00
2018-06-02T08:18:55.424Z,89.60
2018-06-02T08:21:22.939Z,89.60
2018-06-02T08:23:50.495Z,89.50
2018-06-02T08:26:18.050Z,90.00
2018-06-02T08:28:45.998Z,90.20
2018-06-02T08:31:13.535Z,90.00
2018-06-02T08:33:41.056Z,90.00
2018-06-02T08:36:08.601Z,90.00
2018-06-02T08:38:36.123Z,89.70
2018-06-02T08:41:05.130Z,89.40
2018-06-02T08:43:33.424Z,89.70
2018-06-02T08:46:00.950Z,89.70
2018-06-02T08:48:28.463Z,89.40
2018-06-02T08:50:56.004Z,89.20
2018-06-02T08:53:23.536Z,88.30
2018-06-02T08:55:51.835Z,87.80
2018-06-02T08:58:19.360Z,87.70
2018-06-02T09:00:46.915Z,89.10
2018-06-02T09:03:14.432Z,88.00
2018-06-02T09:05:41.962Z,87.40
2018-06-02T09:08:09.504Z,86.30
2018-06-02T09:10:37.031Z,87.40
2018-06-02T09:13:04.558Z,87.00
2018-06-02T09:15:32.166Z,87.60
2018-06-02T09:18:00.680Z,85.70
2018-06-02T09:20:28.970Z,85.30
2018-06-02T09:22:56.503Z,85.30
2018-06-02T09:25:24.044Z,85.60
2018-06-02T09:27:51.581Z,85.30
2018-06-02T09:30:19.118Z,85.00
2018-06-02T09:32:46.663Z,84.60
2018-06-02T09:35:14.257Z,83.90
2018-06-02T09:37:41.736Z,83.30
2018-06-02T09:40:09.300Z,82.90
2018-06-02T09:42:37.107Z,82.60
2018-06-02T09:45:05.088Z,82.80
2018-06-02T09:47:32.615Z,81.00
2018-06-02T09:50:00.140Z,80.90
2018-06-02T09:52:27.663Z,79.70
2018-06-02T09:54:55.191Z,80.80
2018-06-02T09:57:22.724Z,80.40
2018-06-02T09:59:50.255Z,79.40
2018-06-02T10:02:17.788Z,79.20
2018-06-02T10:04:45.400Z,80.00
2018-06-02T10:07:13.647Z,79.90
2018-06-02T10:09:41.223Z,79.80
2018-06-02T10:12:08.752Z,79.60
2018-06-02T10:14:37.047Z,80.00
2018-06-02T10:17:04.587Z,79.90
2018-06-02T10:19:32.136Z,80.00
2018-06-02T10:21:59.674Z,78.10
2018-06-02T10:24:27.194Z,78.10
2018-06-02T10:26:55.551Z,78.10
2018-06-02T10:29:23.857Z,79.10
2018-06-02T10:31:51.383Z,78.30
2018-06-02T10:34:19.467Z,76.10
2018-06-02T10:36:47.038Z,75.50
2018-06-02T10:39:15.323Z,76.10
2018-06-02T10:41:42.931Z,75.80
2018-06-02T10:44:10.451Z,75.40
2018-06-02T10:46:38.336Z,74.80
2018-06-02T10:49:06.633Z,74.40
2018-06-02T10:51:34.163Z,74.60
2018-06-02T10:54:01.723Z,74.10
2018-06-02T10:56:29.523Z,72.50
2018-06-02T10:58:57.984Z,71.00
2018-06-02T11:01:25.689Z,71.80
2018-06-02T11:03:53.205Z,72.40
2018-06-02T11:06:20.732Z,71.60
2018-06-02T11:08:49.015Z,71.90
2018-06-02T11:11:17.294Z,72.40
2018-06-02T11:13:45.571Z,72.60
2018-06-02T11:16:14.827Z,72.90
2018-06-02T11:18:42.343Z,72.90
2018-06-02T11:21:09.883Z,73.30
2018-06-02T11:23:38.567Z,73.00
2018-06-02T11:26:06.119Z,72.80
2018-06-02T11:28:33.660Z,72.30
2018-06-02T11:31:01.188Z,71.20
2018-06-02T11:33:29.590Z,71.80
2018-06-02T11:35:57.115Z,70.60
2018-06-02T11:38:24.640Z,71.20
2018-06-02T11:40:52.223Z,73.20
2018-06-02T11:43:19.799Z,72.80
2018-06-02T11:45:47.376Z,71.90
2018-06-02T11:48:15.197Z,71.60
2018-06-02T11:50:43.055Z,71.00
2018-06-02T11:53:10.637Z,71.30
2018-06-02T11:55:38.956Z,70.30
2018-06-02T11:58:06.789Z,70.20
2018-06-02T12:00:34.629Z,70.70
2018-06-02T12:03:02.173Z,70.70
2018-06-02T12:05:29.701Z,70.70
2018-06-02T12:07:57.215Z,70.80
2018-06-02T12:10:25.509Z,71.20
2018-06-02T12:12:53.040Z,71.20
2018-06-02T12:15:20.553Z,70.20
2018-06-02T12:17:48.078Z,69.80
2018-06-02T12:20:16.375Z,69.70
2018-06-02T12:22:43.892Z,69.80
2018-06-02T12:25:11.413Z,69.50
2018-06-02T12:27:38.935Z,68.50
2018-06-02T12:30:07.229Z,68.90
2018-06-02T12:32:34.754Z,68.70
2018-06-02T12:35:02.280Z,69.80
2018-06-02T12:37:29.808Z,69.20
2018-06-02T12:39:57.327Z,70.20
2018-06-02T12:42:24.875Z,70.50
2018-06-02T12:44:52.386Z,69.70
2018-06-02T12:47:20.674Z,69.50
2018-06-02T12:49:48.192Z,69.50
2018-06-02T12:52:15.709Z,69.80
2018-06-02T12:54:43.231Z,69.80
2018-06-02T12:57:11.514Z,67.90
2018-06-02T12:59:39.795Z,68.80
2018-06-02T13:02:08.070Z,68.70
2018-06-02T13:04:36.347Z,68.90
2018-06-02T13:07:04.630Z,70.00
2018-06-02T13:09:32.156Z,69.80
2018-06-02T13:11:59.675Z,69.80
2018-06-02T13:14:27.198Z,69.30
2018-06-02T13:16:54.718Z,69.20
2018-06-02T13:19:22.249Z,69.60
2018-06-02T13:21:49.763Z,69.30
2018-06-02T13:24:17.271Z,69.00
2018-06-02T13:26:44.798Z,68.30
2018-06-02T13:29:12.323Z,69.00
2018-06-02T13:31:39.843Z,68.30
2018-06-02T13:34:07.368Z,69.00
2018-06-02T13:36:34.891Z,69.40
2018-06-02T13:39:02.423Z,69.30
2018-06-02T13:41:29.946Z,68.60
2018-06-02T13:43:57.479Z,68.20
2018-06-02T13:46:24.995Z,69.00
2018-06-02T13:48:52.652Z,69.90
2018-06-02T13:51:20.230Z,68.00
2018-06-02T13:53:47.766Z,69.90
2018-06-02T13:56:16.399Z,69.80
2018-06-02T13:58:43.923Z,69.80
2018-06-02T14:01:11.442Z,70.00
2018-06-02T14:03:38.958Z,70.40
2018-06-02T14:06:06.490Z,70.50
2018-06-02T14:08:34.782Z,70.80
2018-06-02T14:11:02.304Z,70.70
2018-06-02T14:13:29.869Z,70.40
2018-06-02T14:15:57.387Z,70.20
2018-06-02T14:18:24.905Z,70.20
2018-06-02T14:20:52.470Z,69.50
2018-06-02T14:23:20.018Z,69.40
2018-06-02T14:25:47.534Z,70.20
2018-06-02T14:28:15.079Z,70.20
2018-06-02T14:30:42.590Z,70.80
2018-06-02T14:33:10.140Z,71.10
2018-06-02T14:35:37.899Z,70.20
2018-06-02T14:38:05.468Z,70.30
2018-06-02T14:40:33.003Z,68.60
2018-06-02T14:43:00.721Z,67.70
2018-06-02T14:45:28.246Z,66.50
2018-06-02T14:47:56.696Z,66.60
2018-06-02T14:50:24.228Z,67.20
2018-06-02T14:52:51.755Z,67.30
2018-06-02T14:55:19.302Z,68.10
2018-06-02T14:57:46.838Z,65.90
2018-06-02T15:00:14.360Z,66.60
2018-06-02T15:02:41.878Z,66.30
2018-06-02T15:05:09.402Z,66.90
2018-06-02T15:07:36.926Z,66.80
2018-06-02T15:10:04.451Z,67.60
2018-06-02T15:12:31.967Z,66.90
2018-06-02T15:15:00.256Z,67.40
2018-06-02T15:17:27.806Z,67.40
2018-06-02T15:19:55.316Z,67.00
2018-06-02T15:22:22.840Z,67.10
2018-06-02T15:24:50.388Z,67.10
2018-06-02T15:27:18.668Z,69.40
2018-06-02T15:29:46.187Z,69.30
2018-06-02T15:32:14.610Z,69.20
2018-06-02T15:34:42.144Z,68.30
2018-06-02T15:37:09.663Z,68.70
2018-06-02T15:39:37.198Z,67.90
2018-06-02T15:42:04.778Z,68.30
2018-06-02T15:44:32.336Z,67.60
2018-06-02T15:46:59.851Z,68.00
2018-06-02T15:49:27.388Z,68.30
2018-06-02T15:51:54.914Z,68.90
2018-06-02T15:54:22.448Z,68.10
2018-06-02T15:56:49.976Z,69.10
2018-06-02T15:59:17.966Z,69.70
2018-06-02T16:01:45.526Z,68.40
2018-06-02T16:04:13.047Z,68.20
2018-06-02T16:06:40.570Z,68.60
2018-06-02T16:09:08.091Z,68.30
2018-06-02T16:11:35.739Z,68.80
2018-06-02T16:14:03.306Z,69.00
2018-06-02T16:16:30.833Z,68.80
2018-06-02T16:18:58.947Z,69.70
2018-06-02T16:21:26.475Z,70.00
2018-06-02T16:23:54.027Z,68.50
2018-06-02T16:26:21.562Z,69.40
2018-06-02T16:28:49.100Z,70.10
2018-06-02T16:31:16.645Z,70.90
2018-06-02T16:33:44.187Z,70.10
2018-06-02T16:36:11.727Z,69.80
2018-06-02T16:38:39.253Z,69.50
2018-06-02T16:41:06.771Z,69.60
2018-06-02T16:43:35.055Z,70.30
2018-06-02T16:46:02.588Z,70.20
2018-06-02T16:48:30.106Z,69.00
2018-06-02T16:50:57.643Z,68.30
2018-06-02T16:53:25.168Z,69.10
2018-06-02T16:55:52.691Z,69.50
2018-06-02T16:58:20.225Z,69.40
2018-06-02T17:00:47.756Z,69.90
2018-06-02T17:03:15.276Z,69.70
2018-06-02T17:05:42.808Z,71.20
2018-06-02T17:08:10.339Z,71.50
2018-06-02T17:10:37.858Z,70.90
2018-06-02T17:13:05.390Z,71.70
2018-06-02T17:15:32.915Z,71.30
2018-06-02T17:18:00.488Z,72.10
2018-06-02T17:20:28.014Z,71.60
2018-06-02T17:22:55.569Z,71.60
2018-06-02T17:25:23.096Z,71.20
2018-06-02T17:27:51.396Z,71.40
2018-06-02T17:30:19.268Z,71.40
2018-06-02T17:32:46.796Z,71.00
2018-06-02T17:35:14.352Z,71.30
2018-06-02T17:37:41.868Z,71.60
2018-06-02T17:40:09.391Z,71.30
2018-06-02T17:42:36.925Z,71.70
2018-06-02T17:45:04.597Z,71.90
2018-06-02T17:47:32.122Z,72.10
2018-06-02T17:49:59.652Z,71.50
2018-06-02T17:52:27.173Z,71.70
2018-06-02T17:54:54.726Z,71.70
2018-06-02T17:57:22.243Z,72.10
2018-06-02T17:59:49.782Z,72.00
2018-06-02T18:02:17.298Z,72.90
2018-06-02T18:04:44.831Z,72.90
2018-06-02T18:07:13.303Z,72.60
2018-06-02T18:09:40.824Z,72.70
2018-06-02T18:12:10.470Z,73.00
2018-06-02T18:14:44.432Z,73.10
2018-06-02T18:17:15.216Z,73.00
2018-06-02T18:19:43.171Z,73.30
2018-06-02T18:22:11.249Z,73.20
2018-06-02T18:24:39.407Z,73.40
2018-06-02T18:27:06.922Z,74.30
2018-06-02T18:29:35.619Z,73.30
2018-06-02T18:32:05.031Z,73.80
2018-06-02T18:34:34.868Z,73.80
2018-06-02T18:37:02.447Z,74.20
2018-06-02T18:39:30.498Z,74.10
2018-06-02T18:41:58.027Z,74.40
2018-06-02T18:44:26.268Z,74.30
2018-06-02T18:46:53.790Z,74.10
2018-06-02T18:49:21.326Z,74.60
2018-06-02T18:51:48.874Z,75.20
2018-06-02T18:54:16.401Z,75.10
2018-06-02T18:56:43.959Z,75.20
2018-06-02T18:59:11.488Z,75.30
2018-06-02T19:01:39.015Z,75.50
2018-06-02T19:04:06.623Z,75.80
2018-06-02T19:06:34.151Z,75.80
2018-06-02T19:09:01.670Z,75.50
2018-06-02T19:11:29.194Z,76.00
2018-06-02T19:13:56.716Z,76.60
2018-06-02T19:16:24.252Z,77.60
2018-06-02T19:18:51.784Z,78.20
2018-06-02T19:21:20.104Z,76.70
2018-06-02T19:23:47.620Z,76.70
2018-06-02T19:26:15.927Z,77.60
2018-06-02T19:28:43.451Z,77.60
2018-06-02T19:31:10.976Z,78.90
2018-06-02T19:33:38.586Z,80.00
2018-06-02T19:36:06.687Z,79.00
2018-06-02T19:38:34.231Z,78.90
2018-06-02T19:41:01.811Z,79.10
2018-06-02T19:43:30.064Z,80.00
2018-06-02T19:45:57.608Z,80.10
2018-06-02T19:48:25.126Z,80.30
2018-06-02T19:50:52.685Z,80.00
2018-06-02T19:53:20.204Z,79.80
2018-06-02T19:55:47.767Z,79.70
2018-06-02T19:58:15.307Z,80.30
2018-06-02T20:00:42.830Z,80.00
2018-06-02T20:03:10.356Z,80.50
2018-06-02T20:05:37.871Z,81.00
2018-06-02T20:08:05.655Z,81.40
2018-06-02T20:10:33.172Z,81.40
2018-06-02T20:13:00.683Z,81.60
2018-06-02T20:15:28.207Z,81.60
2018-06-02T20:17:55.727Z,82.10
2018-06-02T20:20:23.261Z,82.50
2018-06-02T20:22:50.787Z,82.70
2018-06-02T20:25:18.307Z,82.80
2018-06-02T20:27:45.857Z,82.60
2018-06-02T20:30:13.379Z,82.60
2018-06-02T20:32:40.899Z,83.10
2018-06-02T20:35:08.421Z,83.60
2018-06-02T20:37:36.943Z,83.20
2018-06-02T20:40:04.468Z,83.20
2018-06-02T20:42:32.803Z,83.60
2018-06-02T20:45:00.331Z,83.60
2018-06-02T20:47:27.878Z,83.80
2018-06-02T20:49:55.407Z,83.50
2018-06-02T20:52:22.935Z,84.00
2018-06-02T20:54:50.452Z,84.00
2018-06-02T20:57:17.981Z,83.90
2018-06-02T20:59:45.497Z,84.10
2018-06-02T21:02:13.071Z,84.30
2018-06-02T21:04:40.603Z,84.40
2018-06-02T21:07:08.136Z,84.00
2018-06-02T21:09:35.709Z,84.50
2018-06-02T21:12:03.287Z,84.80
2018-06-02T21:14:30.807Z,84.90
2018-06-02T21:16:58.324Z,84.50
2018-06-02T21:19:26.081Z,84.70
2018-06-02T21:21:53.999Z,84.90
2018-06-02T21:24:21.541Z,85.20
2018-06-02T21:26:49.079Z,85.50
2018-06-02T21:29:16.604Z,85.80
2018-06-02T21:31:44.899Z,86.00
2018-06-02T21:34:12.760Z,86.00
2018-06-02T21:36:40.284Z,85.90
2018-06-02T21:39:07.807Z,86.10
2018-06-02T21:41:35.395Z,86.20
2018-06-02T21:44:02.940Z,86.40
2018-06-02T21:46:30.860Z,86.40
2018-06-02T21:48:59.138Z,86.60
2018-06-02T21:51:26.656Z,86.60
2018-06-02T21:53:54.180Z,86.40
2018-06-02T21:56:21.695Z,86.70
2018-06-02T21:58:49.215Z,86.60
2018-06-02T22:01:16.735Z,86.60
2018-06-02T22:03:45.831Z,86.80
2018-06-02T22:06:13.679Z,86.80
2018-06-02T22:08:41.230Z,87.70
2018-06-02T22:11:09.011Z,86.70
2018-06-02T22:13:36.564Z,86.60
2018-06-02T22:16:04.091Z,86.90
2018-06-02T22:18:32.003Z,87.00
2018-06-02T22:20:59.532Z,87.40
2018-06-02T22:23:27.056Z,87.30
2018-06-02T22:25:54.575Z,87.30
2018-06-02T22:28:22.988Z,87.50
2018-06-02T22:30:50.516Z,87.60
2018-06-02T22:33:18.041Z,87.90
2018-06-02T22:35:45.554Z,87.60
2018-06-02T22:38:13.150Z,87.70
2018-06-02T22:40:40.660Z,87.70
2018-06-02T22:43:08.216Z,87.80
2018-06-02T22:45:35.738Z,87.70
2018-06-02T22:48:03.257Z,87.70
2018-06-02T22:50:30.816Z,87.70
2018-06-02T22:52:58.351Z,87.70
2018-06-02T22:55:25.927Z,87.50
2018-06-02T22:57:54.254Z,87.70
2018-06-02T23:00:21.771Z,87.60
2018-06-02T23:02:50.356Z,87.90
2018-06-02T23:05:18.942Z,87.90
2018-06-02T23:07:46.487Z,87.90
2018-06-02T23:10:14.011Z,88.00
2018-06-02T23:12:41.584Z,88.00
2018-06-02T23:15:09.103Z,88.00
2018-06-02T23:17:36.627Z,87.80
2018-06-02T23:20:04.180Z,87.80
2018-06-02T23:22:38.567Z,87.80
2018-06-02T23:25:07.951Z,87.90
2018-06-02T23:27:35.792Z,87.90
2018-06-02T23:30:04.233Z,88.30
2018-06-02T23:32:31.788Z,88.30
2018-06-02T23:34:59.950Z,88.40
2018-06-02T23:37:27.884Z,88.20
2018-06-02T23:39:55.387Z,88.00
2018-06-02T23:42:22.898Z,88.20
2018-06-02T23:44:51.191Z,88.80
2018-06-02T23:47:18.738Z,88.70
2018-06-02T23:49:47.039Z,88.70
2018-06-02T23:52:14.569Z,88.60
2018-06-02T23:54:42.854Z,88.50
2018-06-02T23:57:11.172Z,88.20
2018-06-02T23:59:38.694Z,88.20
